Time;durP1;ratioP1;P1;durP2;ratioP2;P2;SDS_P1;SDS_P2;PMS_P1;PMS_P2;Temp;Humidity;BMP_temperature;BMP_pressure;BME280_temperature;BME280_humidity;BME280_pressure;Samples;Min_cycle;Max_cycle;Signal;HPM_P1;HPM_P2
2021/11/06 00:01:38;;;;;;;2.90;1.63;;;;;;;;;;5096667;28;20028;-79
2021/11/06 00:04:04;;;;;;;0.63;0.63;;;;;;;;;;5096604;28;20081;-79
2021/11/06 00:06:29;;;;;;;1.80;1.65;;;;;;;;;;5096799;28;20028;-80
2021/11/06 00:08:54;;;;;;;0.30;0.30;;;;;;;;;;5097046;28;20430;-79
2021/11/06 00:11:20;;;;;;;0.73;0.73;;;;;;;;;;5096570;28;20062;-80
2021/11/06 00:13:45;;;;;;;0.73;0.73;;;;;;;;;;5096607;28;20467;-80
2021/11/06 00:16:10;;;;;;;0.57;0.47;;;;;;;;;;5096487;28;20039;-79
2021/11/06 00:18:35;;;;;;;1.73;1.00;;;;;;;;;;5096406;28;20024;-80
2021/11/06 00:21:01;;;;;;;0.20;0.20;;;;;;;;;;5096302;28;20024;-80
2021/11/06 00:23:26;;;;;;;0.88;0.88;;;;;;;;;;5096289;28;20044;-80
2021/11/06 00:25:51;;;;;;;0.45;0.45;;;;;;;;;;5096202;28;20020;-80
2021/11/06 00:28:16;;;;;;;10.52;2.05;;;;;;;;;;5096221;28;20510;-80
2021/11/06 00:30:42;;;;;;;1.23;1.13;;;;;;;;;;5096099;28;20069;-80
2021/11/06 00:33:08;;;;;;;0.30;0.30;;;;;;;;;;5096054;28;20050;-79
2021/11/06 00:35:33;;;;;;;1.80;1.15;;;;;;;;;;5095778;28;20388;-80
2021/11/06 00:37:59;;;;;;;0.95;0.95;;;;;;;;;;5096063;28;20032;-79
2021/11/06 00:40:24;;;;;;;1.08;1.05;;;;;;;;;;5095987;28;20408;-80
2021/11/06 00:42:49;;;;;;;0.60;0.60;;;;;;;;;;5095798;28;20032;-80
2021/11/06 00:45:15;;;;;;;3.78;1.33;;;;;;;;;;5096063;28;20081;-79
2021/11/06 00:47:41;;;;;;;0.98;0.98;;;;;;;;;;5095769;28;20038;-80
2021/11/06 00:50:07;;;;;;;1.48;1.38;;;;;;;;;;5095067;28;20028;-79
2021/11/06 00:52:32;;;;;;;0.82;0.82;;;;;;;;;;5095659;28;20031;-80
2021/11/06 00:54:57;;;;;;;0.30;0.30;;;;;;;;;;5095964;28;20020;-79
2021/11/06 00:57:23;;;;;;;0.85;0.85;;;;;;;;;;5095951;28;20047;-80
2021/11/06 00:59:48;;;;;;;0.30;0.30;;;;;;;;;;5095607;28;20494;-79
2021/11/06 01:02:13;;;;;;;2.28;0.85;;;;;;;;;;5095606;28;20035;-80
2021/11/06 01:04:38;;;;;;;0.55;0.55;;;;;;;;;;5080571;28;20504;-79
2021/11/06 01:07:04;;;;;;;1.88;1.63;;;;;;;;;;5074357;28;20024;-80
2021/11/06 01:09:29;;;;;;;1.85;1.58;;;;;;;;;;5074663;28;20027;-80
2021/11/06 01:11:54;;;;;;;4.40;2.78;;;;;;;;;;5075252;28;20039;-80
2021/11/06 01:14:20;;;;;;;1.20;1.10;;;;;;;;;;5075092;28;20037;-80
2021/11/06 01:16:45;;;;;;;0.73;0.73;;;;;;;;;;5075029;28;20017;-80
2021/11/06 01:19:11;;;;;;;0.60;0.60;;;;;;;;;;5075118;28;20436;-79
2021/11/06 01:21:36;;;;;;;0.80;0.80;;;;;;;;;;5074924;28;20056;-80
2021/11/06 01:24:02;;;;;;;1.48;1.10;;;;;;;;;;5074816;28;20033;-79
2021/11/06 01:26:27;;;;;;;0.70;0.70;;;;;;;;;;5074914;28;20025;-80
2021/11/06 01:28:53;;;;;;;3.20;2.08;;;;;;;;;;5074813;28;20529;-79
2021/11/06 01:31:18;;;;;;;0.65;0.65;;;;;;;;;;5074579;28;20046;-80
2021/11/06 01:33:43;;;;;;;0.95;0.75;;;;;;;;;;5087780;28;20057;-81
2021/11/06 01:36:08;;;;;;;3.17;2.42;;;;;;;;;;5094735;28;20131;-80
2021/11/06 01:38:34;;;;;;;0.10;0.10;;;;;;;;;;5094549;28;20069;-80
2021/11/06 01:40:59;;;;;;;0.47;0.38;;;;;;;;;;5093529;28;20035;-80
2021/11/06 01:43:25;;;;;;;1.13;0.93;;;;;;;;;;5095016;28;20050;-80
2021/11/06 01:45:55;;;;;;;0.55;0.55;;;;;;;;;;5094427;28;20020;-80
2021/11/06 01:48:20;;;;;;;1.63;1.52;;;;;;;;;;5094718;28;20458;-79
2021/11/06 01:50:46;;;;;;;0.47;0.47;;;;;;;;;;5094606;28;20123;-80
2021/11/06 01:53:11;;;;;;;1.40;1.17;;;;;;;;;;5094626;28;20016;-79
2021/11/06 01:55:36;;;;;;;1.45;1.35;;;;;;;;;;5094480;28;20055;-80
2021/11/06 01:58:01;;;;;;;1.70;0.70;;;;;;;;;;5094498;28;20063;-79
2021/11/06 02:00:27;;;;;;;1.75;1.55;;;;;;;;;;5094694;28;20081;-79
2021/11/06 02:02:53;;;;;;;1.15;1.13;;;;;;;;;;5094320;28;20038;-80
2021/11/06 02:05:18;;;;;;;1.80;1.65;;;;;;;;;;5094430;28;20496;-80
2021/11/06 02:07:44;;;;;;;0.80;0.80;;;;;;;;;;5094496;28;20020;-79
2021/11/06 02:10:10;;;;;;;2.15;2.00;;;;;;;;;;5093975;28;20476;-79
2021/11/06 02:12:35;;;;;;;1.38;1.08;;;;;;;;;;5094186;28;20088;-80
2021/11/06 02:15:01;;;;;;;1.75;1.27;;;;;;;;;;5094309;28;20028;-79
2021/11/06 02:17:26;;;;;;;1.52;1.42;;;;;;;;;;5094164;28;20060;-79
2021/11/06 02:19:51;;;;;;;1.83;1.73;;;;;;;;;;5094078;28;20119;-79
2021/11/06 02:22:16;;;;;;;1.10;1.08;;;;;;;;;;5093789;28;20020;-79
2021/11/06 02:24:42;;;;;;;1.50;1.40;;;;;;;;;;5093630;28;20057;-79
2021/11/06 02:27:07;;;;;;;1.42;1.33;;;;;;;;;;5094030;28;20060;-79
2021/11/06 02:29:33;;;;;;;2.88;0.80;;;;;;;;;;5093878;28;20016;-80
2021/11/06 02:31:59;;;;;;;1.23;1.00;;;;;;;;;;5094269;28;20028;-79
2021/11/06 02:34:24;;;;;;;3.28;3.05;;;;;;;;;;5093772;28;20119;-79
2021/11/06 02:36:49;;;;;;;1.73;1.20;;;;;;;;;;5093520;28;20051;-80
2021/11/06 02:39:15;;;;;;;0.73;0.73;;;;;;;;;;5093993;28;20028;-80
2021/11/06 02:41:40;;;;;;;1.65;1.55;;;;;;;;;;5093615;28;20047;-79
2021/11/06 02:44:06;;;;;;;0.93;0.93;;;;;;;;;;5093342;28;20043;-79
2021/11/06 02:46:33;;;;;;;1.60;1.13;;;;;;;;;;5093423;28;20028;-79
2021/11/06 02:48:58;;;;;;;2.15;1.95;;;;;;;;;;5093386;28;20032;-79
2021/11/06 02:51:24;;;;;;;2.38;2.20;;;;;;;;;;5092839;28;20031;-79
2021/11/06 02:53:49;;;;;;;0.57;0.55;;;;;;;;;;5093901;28;20078;-79
2021/11/06 02:56:14;;;;;;;1.38;1.20;;;;;;;;;;5093882;28;20371;-79
2021/11/06 02:58:39;;;;;;;0.60;0.60;;;;;;;;;;5093125;28;20376;-79
2021/11/06 03:01:05;;;;;;;0.90;0.82;;;;;;;;;;5093083;28;20027;-79
2021/11/06 03:03:30;;;;;;;2.63;2.20;;;;;;;;;;5093676;28;20051;-79
2021/11/06 03:05:55;;;;;;;1.58;1.48;;;;;;;;;;5093735;28;20032;-79
2021/11/06 03:08:21;;;;;;;1.83;1.65;;;;;;;;;;5093409;28;20031;-80
2021/11/06 03:10:46;;;;;;;2.05;1.85;;;;;;;;;;5093393;28;20032;-80
2021/11/06 03:13:12;;;;;;;1.70;1.58;;;;;;;;;;5094735;28;20016;-79
2021/11/06 03:15:37;;;;;;;0.88;0.88;;;;;;;;;;5097853;28;20456;-79
2021/11/06 03:18:02;;;;;;;1.10;1.02;;;;;;;;;;5097750;28;20460;-79
2021/11/06 03:20:28;;;;;;;1.23;1.13;;;;;;;;;;5097493;28;20379;-80
2021/11/06 03:22:57;;;;;;;2.10;1.42;;;;;;;;;;5097417;28;20040;-80
2021/11/06 03:25:23;;;;;;;0.55;0.55;;;;;;;;;;5097455;28;20098;-80
2021/11/06 03:27:48;;;;;;;1.42;1.33;;;;;;;;;;5097398;28;20067;-80
2021/11/06 03:30:13;;;;;;;0.73;0.73;;;;;;;;;;5097059;28;20055;-79
2021/11/06 03:32:39;;;;;;;1.33;0.93;;;;;;;;;;5096885;28;20024;-80
2021/11/06 03:35:07;;;;;;;1.42;1.08;;;;;;;;;;5097079;28;20030;-79
2021/11/06 03:37:33;;;;;;;0.50;0.30;;;;;;;;;;5097241;28;20028;-80
2021/11/06 03:39:58;;;;;;;2.30;2.13;;;;;;;;;;5097234;28;20035;-79
2021/11/06 03:42:23;;;;;;;0.95;0.85;;;;;;;;;;5096089;28;20062;-79
2021/11/06 03:44:49;;;;;;;2.30;1.90;;;;;;;;;;5096776;28;20044;-80
2021/11/06 03:47:14;;;;;;;1.40;1.35;;;;;;;;;;5097126;28;20051;-79
2021/11/06 03:49:39;;;;;;;2.17;2.08;;;;;;;;;;5097075;28;20458;-80
2021/11/06 03:52:04;;;;;;;5.35;3.33;;;;;;;;;;5096691;28;20032;-79
2021/11/06 03:54:30;;;;;;;3.47;3.17;;;;;;;;;;5096876;28;20042;-80
2021/11/06 03:56:55;;;;;;;4.07;2.80;;;;;;;;;;5095696;28;20031;-80
2021/11/06 03:59:20;;;;;;;2.45;2.25;;;;;;;;;;5096726;28;20473;-80
2021/11/06 04:01:45;;;;;;;0.88;0.85;;;;;;;;;;5096490;28;20038;-79
2021/11/06 04:04:11;;;;;;;1.63;1.52;;;;;;;;;;5096672;28;20035;-79
2021/11/06 04:06:36;;;;;;;4.15;2.92;;;;;;;;;;5096650;28;20052;-79
2021/11/06 04:09:03;;;;;;;1.30;1.20;;;;;;;;;;5096751;28;20032;-80
2021/11/06 04:11:28;;;;;;;2.22;2.08;;;;;;;;;;5096730;28;20016;-79
2021/11/06 04:13:53;;;;;;;2.97;2.42;;;;;;;;;;5096576;28;20092;-80
2021/11/06 04:16:19;;;;;;;2.00;1.85;;;;;;;;;;5096374;28;20036;-79
2021/11/06 04:18:44;;;;;;;1.73;1.55;;;;;;;;;;5096338;28;20445;-80
2021/11/06 04:21:09;;;;;;;1.10;0.98;;;;;;;;;;5096435;28;20032;-80
2021/11/06 04:23:35;;;;;;;0.95;0.95;;;;;;;;;;5095785;28;20051;-80
2021/11/06 04:26:00;;;;;;;2.50;2.30;;;;;;;;;;5094774;28;20012;-79
2021/11/06 04:28:25;;;;;;;1.20;1.00;;;;;;;;;;5096167;28;20047;-79
2021/11/06 04:30:51;;;;;;;1.33;1.23;;;;;;;;;;5096567;28;20028;-80
2021/11/06 04:33:16;;;;;;;5.05;1.17;;;;;;;;;;5096282;28;20152;-79
2021/11/06 04:35:42;;;;;;;1.25;1.08;;;;;;;;;;5095960;28;20040;-79
2021/11/06 04:38:07;;;;;;;2.67;1.17;;;;;;;;;;5096152;28;20032;-79
2021/11/06 04:40:32;;;;;;;1.23;1.00;;;;;;;;;;5095970;28;20376;-79
2021/11/06 04:42:57;;;;;;;1.38;1.15;;;;;;;;;;5095879;28;20074;-80
2021/11/06 04:45:23;;;;;;;2.33;1.65;;;;;;;;;;5095625;28;20051;-80
2021/11/06 04:47:48;;;;;;;0.98;0.98;;;;;;;;;;5095839;28;20020;-80
2021/11/06 04:50:14;;;;;;;9.27;5.28;;;;;;;;;;5095811;28;20025;-79
2021/11/06 04:52:39;;;;;;;0.38;0.38;;;;;;;;;;5095726;28;20055;-80
2021/11/06 04:55:05;;;;;;;0.00;0.00;;;;;;;;;;5095959;28;20024;-79
2021/11/06 04:57:31;;;;;;;0.52;0.52;;;;;;;;;;5095843;28;20064;-79
2021/11/06 04:59:56;;;;;;;0.50;0.50;;;;;;;;;;5095801;28;20396;-80
2021/11/06 05:02:21;;;;;;;0.13;0.13;;;;;;;;;;5095728;28;20020;-79
2021/11/06 05:04:48;;;;;;;2.17;1.65;;;;;;;;;;5094308;28;20036;-80
2021/11/06 05:07:13;;;;;;;1.10;1.05;;;;;;;;;;5095603;28;20036;-80
2021/11/06 05:09:38;;;;;;;0.25;0.25;;;;;;;;;;5095131;28;20103;-80
2021/11/06 05:12:04;;;;;;;1.75;1.65;;;;;;;;;;5095391;28;20024;-80
2021/11/06 05:14:29;;;;;;;0.30;0.30;;;;;;;;;;5095443;28;20094;-80
2021/11/06 05:16:54;;;;;;;0.17;0.17;;;;;;;;;;5095320;28;20027;-80
2021/11/06 05:19:20;;;;;;;1.10;1.05;;;;;;;;;;5095056;28;20064;-80
2021/11/06 05:21:46;;;;;;;0.10;0.10;;;;;;;;;;5095167;28;20110;-80
2021/11/06 05:24:11;;;;;;;0.93;0.88;;;;;;;;;;5095013;28;20036;-80
2021/11/06 05:26:38;;;;;;;1.85;1.20;;;;;;;;;;5095100;28;20353;-80
2021/11/06 05:29:06;;;;;;;0.85;0.85;;;;;;;;;;5094729;28;20460;-80
2021/11/06 05:31:32;;;;;;;0.85;0.85;;;;;;;;;;5095070;28;20020;-80
2021/11/06 05:33:57;;;;;;;0.45;0.45;;;;;;;;;;5094765;28;20077;-80
2021/11/06 05:36:23;;;;;;;0.85;0.82;;;;;;;;;;5094673;28;20059;-80
2021/11/06 05:38:48;;;;;;;0.65;0.65;;;;;;;;;;5094998;28;20077;-80
2021/11/06 05:41:13;;;;;;;0.40;0.40;;;;;;;;;;5094677;28;20032;-80
2021/11/06 05:43:39;;;;;;;0.10;0.10;;;;;;;;;;5094805;28;20032;-80
2021/11/06 05:46:04;;;;;;;0.10;0.10;;;;;;;;;;5094177;28;20024;-80
2021/11/06 05:48:29;;;;;;;0.15;0.15;;;;;;;;;;5094743;28;20034;-80
2021/11/06 05:50:55;;;;;;;0.20;0.20;;;;;;;;;;5094719;28;20028;-80
2021/11/06 05:53:20;;;;;;;0.03;0.03;;;;;;;;;;5094703;28;20024;-80
2021/11/06 05:55:45;;;;;;;0.25;0.25;;;;;;;;;;5094703;28;20024;-79
2021/11/06 05:58:10;;;;;;;0.30;0.30;;;;;;;;;;5094523;28;20051;-80
2021/11/06 06:00:36;;;;;;;0.47;0.47;;;;;;;;;;5092914;28;20035;-79
2021/11/06 06:03:01;;;;;;;0.35;0.35;;;;;;;;;;5094083;28;20422;-79
2021/11/06 06:05:26;;;;;;;0.40;0.40;;;;;;;;;;5094308;28;20047;-79
2021/11/06 06:07:52;;;;;;;0.00;0.00;;;;;;;;;;5094362;28;20033;-80
2021/11/06 06:10:17;;;;;;;1.80;0.60;;;;;;;;;;5094330;28;20523;-79
2021/11/06 06:12:44;;;;;;;0.05;0.05;;;;;;;;;;5093965;28;20032;-79
2021/11/06 06:15:09;;;;;;;0.10;0.10;;;;;;;;;;5094218;28;20023;-79
2021/11/06 06:17:36;;;;;;;0.10;0.10;;;;;;;;;;5094461;28;20174;-79
2021/11/06 06:20:02;;;;;;;0.17;0.17;;;;;;;;;;5094140;28;20174;-79
2021/11/06 06:22:27;;;;;;;2.17;0.75;;;;;;;;;;5094030;28;20111;-79
2021/11/06 06:24:53;;;;;;;1.85;1.58;;;;;;;;;;5094279;28;20036;-80
2021/11/06 06:27:18;;;;;;;0.08;0.08;;;;;;;;;;5094226;28;20024;-79
2021/11/06 06:29:44;;;;;;;0.03;0.03;;;;;;;;;;5093951;28;20398;-80
2021/11/06 06:32:09;;;;;;;0.10;0.10;;;;;;;;;;5109693;28;20077;-80
2021/11/06 06:34:34;;;;;;;0.35;0.32;;;;;;;;;;5094046;28;20024;-80
2021/11/06 06:37:00;;;;;;;0.30;0.30;;;;;;;;;;5094105;28;20058;-79
2021/11/06 06:39:25;;;;;;;0.20;0.20;;;;;;;;;;5093794;28;20058;-80
2021/11/06 06:41:50;;;;;;;0.20;0.20;;;;;;;;;;5094247;28;20032;-79
2021/11/06 06:44:15;;;;;;;0.00;0.00;;;;;;;;;;5093879;28;20036;-79
2021/11/06 06:46:41;;;;;;;0.00;0.00;;;;;;;;;;5093701;28;20081;-80
2021/11/06 06:49:06;;;;;;;0.00;0.00;;;;;;;;;;5093016;28;20036;-80
2021/11/06 06:51:31;;;;;;;0.10;0.10;;;;;;;;;;5092372;28;20020;-80
2021/11/06 06:53:57;;;;;;;0.35;0.32;;;;;;;;;;5093363;28;20111;-80
2021/11/06 06:56:22;;;;;;;0.00;0.00;;;;;;;;;;5093865;28;20048;-80
2021/11/06 06:58:48;;;;;;;0.00;0.00;;;;;;;;;;5093741;28;20024;-79
2021/11/06 07:01:13;;;;;;;0.10;0.10;;;;;;;;;;5093682;28;20036;-80
2021/11/06 07:03:39;;;;;;;0.10;0.10;;;;;;;;;;5093558;28;20483;-80
2021/11/06 07:06:04;;;;;;;0.10;0.10;;;;;;;;;;5093504;28;20441;-79
2021/11/06 07:08:29;;;;;;;0.30;0.30;;;;;;;;;;5092132;28;20029;-80
2021/11/06 07:10:55;;;;;;;0.10;0.10;;;;;;;;;;5093516;28;20036;-80
2021/11/06 07:13:21;;;;;;;0.15;0.15;;;;;;;;;;5093475;28;20081;-79
2021/11/06 07:15:46;;;;;;;0.10;0.10;;;;;;;;;;5093679;28;20030;-79
2021/11/06 07:18:13;;;;;;;0.15;0.15;;;;;;;;;;5093431;28;20107;-79
2021/11/06 07:20:38;;;;;;;0.68;0.68;;;;;;;;;;5093376;28;20024;-79
2021/11/06 07:23:03;;;;;;;0.17;0.17;;;;;;;;;;5093266;28;20400;-79
2021/11/06 07:25:29;;;;;;;0.60;0.60;;;;;;;;;;5093270;28;20491;-79
2021/11/06 07:27:54;;;;;;;0.25;0.25;;;;;;;;;;5093443;28;20020;-81
2021/11/06 07:30:21;;;;;;;1.35;0.98;;;;;;;;;;5093490;28;20032;-79
2021/11/06 07:32:46;;;;;;;0.20;0.20;;;;;;;;;;5093211;28;20034;-79
2021/11/06 07:35:11;;;;;;;0.00;0.00;;;;;;;;;;5092779;28;20028;-79
2021/11/06 07:37:37;;;;;;;0.20;0.20;;;;;;;;;;5093332;28;20046;-79
2021/11/06 07:40:06;;;;;;;0.17;0.17;;;;;;;;;;5093016;28;20032;-79
2021/11/06 07:42:31;;;;;;;0.32;0.32;;;;;;;;;;5093275;28;20021;-79
2021/11/06 07:44:56;;;;;;;0.20;0.20;;;;;;;;;;5093166;28;20438;-79
2021/11/06 07:47:21;;;;;;;0.22;0.22;;;;;;;;;;5092909;28;20387;-79
2021/11/06 07:49:47;;;;;;;0.30;0.28;;;;;;;;;;5092731;28;20024;-80
2021/11/06 07:52:12;;;;;;;0.00;0.00;;;;;;;;;;5093055;28;20053;-79
2021/11/06 07:54:37;;;;;;;0.08;0.08;;;;;;;;;;5092997;28;20036;-80
2021/11/06 07:57:03;;;;;;;0.10;0.10;;;;;;;;;;5093033;28;20073;-80
2021/11/06 07:59:28;;;;;;;0.00;0.00;;;;;;;;;;5094851;28;20039;-80
2021/11/06 08:01:53;;;;;;;0.35;0.35;;;;;;;;;;5096972;28;20411;-79
2021/11/06 08:04:19;;;;;;;1.45;1.17;;;;;;;;;;5096614;28;20068;-79
2021/11/06 08:06:44;;;;;;;0.63;0.63;;;;;;;;;;5097011;28;20059;-79
2021/11/06 08:09:09;;;;;;;1.55;1.45;;;;;;;;;;5096641;28;20391;-80
2021/11/06 08:11:34;;;;;;;0.20;0.20;;;;;;;;;;5096694;28;20016;-80
2021/11/06 08:14:00;;;;;;;2.38;0.80;;;;;;;;;;5096597;28;20035;-80
2021/11/06 08:16:25;;;;;;;0.68;0.68;;;;;;;;;;5096618;28;20488;-80
2021/11/06 08:18:51;;;;;;;0.50;0.38;;;;;;;;;;5096575;28;20020;-79
2021/11/06 08:21:16;;;;;;;0.80;0.75;;;;;;;;;;5096424;28;20059;-79
2021/11/06 08:23:41;;;;;;;0.10;0.10;;;;;;;;;;5096254;28;20068;-79
2021/11/06 08:26:07;;;;;;;15.60;0.90;;;;;;;;;;5096473;28;20024;-79
2021/11/06 08:28:32;;;;;;;0.00;0.00;;;;;;;;;;5096312;28;20024;-79
2021/11/06 08:30:57;;;;;;;2.53;0.55;;;;;;;;;;5096061;28;20365;-80
2021/11/06 08:33:23;;;;;;;1.08;0.30;;;;;;;;;;5095541;28;20024;-79
2021/11/06 08:35:48;;;;;;;0.10;0.10;;;;;;;;;;5095542;28;20487;-79
2021/11/06 08:38:14;;;;;;;0.90;0.30;;;;;;;;;;5095737;28;20119;-79
2021/11/06 08:40:39;;;;;;;24.90;0.55;;;;;;;;;;5095892;28;20056;-80
2021/11/06 08:43:05;;;;;;;0.05;0.05;;;;;;;;;;5078916;28;20383;-80
2021/11/06 08:45:30;;;;;;;0.15;0.15;;;;;;;;;;5075392;28;20099;-80
2021/11/06 08:47:56;;;;;;;0.52;0.52;;;;;;;;;;5075744;28;20029;-79
2021/11/06 08:50:23;;;;;;;0.03;0.03;;;;;;;;;;5075095;28;20465;-80
2021/11/06 08:52:49;;;;;;;0.00;0.00;;;;;;;;;;5075142;28;20036;-79
2021/11/06 08:55:15;;;;;;;0.68;0.38;;;;;;;;;;5075723;28;20020;-79
2021/11/06 08:57:40;;;;;;;0.15;0.15;;;;;;;;;;5075131;28;20043;-80
2021/11/06 09:00:08;;;;;;;0.10;0.10;;;;;;;;;;5075264;28;20063;-80
2021/11/06 09:02:34;;;;;;;0.10;0.10;;;;;;;;;;5074862;28;20024;-81
2021/11/06 09:05:01;;;;;;;2.88;1.20;;;;;;;;;;5075295;28;20087;-81
2021/11/06 09:07:26;;;;;;;3.10;0.47;;;;;;;;;;5074830;28;20099;-81
2021/11/06 09:09:52;;;;;;;0.10;0.10;;;;;;;;;;5074807;28;20549;-80
2021/11/06 09:12:17;;;;;;;0.75;0.57;;;;;;;;;;5074025;28;20142;-80
2021/11/06 09:14:42;;;;;;;0.55;0.40;;;;;;;;;;5074903;28;20029;-81
2021/11/06 09:17:07;;;;;;;0.20;0.20;;;;;;;;;;5082622;28;20020;-80
2021/11/06 09:19:33;;;;;;;2.75;1.70;;;;;;;;;;5094267;28;20035;-81
2021/11/06 09:21:58;;;;;;;0.10;0.10;;;;;;;;;;5095163;28;20141;-81
2021/11/06 09:24:23;;;;;;;0.00;0.00;;;;;;;;;;5094891;28;20085;-81
2021/11/06 09:26:49;;;;;;;1.00;0.80;;;;;;;;;;5094555;28;20035;-81
2021/11/06 09:29:15;;;;;;;1.05;0.95;;;;;;;;;;5094816;28;20039;-81
2021/11/06 09:31:42;;;;;;;0.17;0.17;;;;;;;;;;5094811;28;20111;-81
2021/11/06 09:34:08;;;;;;;0.80;0.65;;;;;;;;;;5078741;28;20036;-80
2021/11/06 09:36:33;;;;;;;0.10;0.10;;;;;;;;;;5074522;28;20127;-81
2021/11/06 09:39:01;;;;;;;8.20;1.77;;;;;;;;;;5074666;28;20025;-81
2021/11/06 09:41:27;;;;;;;0.00;0.00;;;;;;;;;;5074558;28;20119;-81
2021/11/06 09:43:52;;;;;;;0.13;0.13;;;;;;;;;;5074393;28;20540;-82
2021/11/06 09:46:18;;;;;;;0.10;0.10;;;;;;;;;;5074373;28;20021;-81
2021/11/06 09:48:44;;;;;;;0.05;0.05;;;;;;;;;;5073916;28;20457;-80
2021/11/06 09:51:10;;;;;;;0.15;0.10;;;;;;;;;;5074264;28;20040;-81
2021/11/06 09:53:39;;;;;;;0.00;0.00;;;;;;;;;;5074125;28;20028;-81
2021/11/06 09:56:05;;;;;;;0.08;0.08;;;;;;;;;;5074284;28;20028;-80
2021/11/06 09:58:31;;;;;;;0.10;0.10;;;;;;;;;;5073722;28;20098;-81
2021/11/06 10:00:56;;;;;;;0.00;0.00;;;;;;;;;;5074275;28;20048;-81
2021/11/06 10:03:21;;;;;;;0.32;0.30;;;;;;;;;;5073704;28;20039;-81
2021/11/06 10:05:51;;;;;;;0.98;0.85;;;;;;;;;;5073616;28;20115;-81
2021/11/06 10:08:21;;;;;;;0.00;0.00;;;;;;;;;;5072766;28;20028;-81
2021/11/06 10:10:47;;;;;;;0.10;0.10;;;;;;;;;;5073868;28;20082;-81
2021/11/06 10:13:12;;;;;;;0.95;0.73;;;;;;;;;;5073992;28;20058;-79
2021/11/06 10:15:45;;;;;;;0.40;0.40;;;;;;;;;;5074371;28;20012;-81
2021/11/06 10:18:18;;;;;;;0.00;0.00;;;;;;;;;;5080407;28;20032;-82
2021/11/06 10:20:46;;;;;;;0.00;0.00;;;;;;;;;;5093894;28;20031;-82
2021/11/06 10:23:12;;;;;;;0.00;0.00;;;;;;;;;;5093498;28;20521;-81
2021/11/06 10:25:37;;;;;;;0.00;0.00;;;;;;;;;;5094052;28;20039;-81
2021/11/06 10:28:12;;;;;;;0.60;0.57;;;;;;;;;;5094034;28;20020;-81
2021/11/06 10:30:42;;;;;;;0.43;0.40;;;;;;;;;;5093995;28;20016;-81
2021/11/06 10:33:13;;;;;;;0.17;0.17;;;;;;;;;;5093864;28;20126;-81
2021/11/06 10:35:48;;;;;;;0.08;0.08;;;;;;;;;;5093835;28;20130;-81
2021/11/06 10:38:14;;;;;;;;;;;;;;;;;;5094308;28;20077;-81
2021/11/06 10:40:42;;;;;;;0.00;0.00;;;;;;;;;;5093523;28;20348;-81
2021/11/06 10:43:09;;;;;;;0.00;0.00;;;;;;;;;;5093705;28;20031;-81
2021/11/06 10:45:35;;;;;;;0.10;0.10;;;;;;;;;;5093700;28;20032;-81
2021/11/06 10:48:08;;;;;;;0.10;0.10;;;;;;;;;;5093769;28;20024;-81
2021/11/06 10:50:38;;;;;;;0.10;0.10;;;;;;;;;;5093677;28;20115;-81
2021/11/06 10:53:04;;;;;;;0.38;0.38;;;;;;;;;;5091830;28;20019;-82
2021/11/06 10:55:33;;;;;;;0.10;0.10;;;;;;;;;;5093414;28;20040;-81
2021/11/06 10:57:58;;;;;;;0.00;0.00;;;;;;;;;;5093474;28;20045;-81
2021/11/06 11:00:24;;;;;;;0.10;0.10;;;;;;;;;;5093502;28;20020;-81
2021/11/06 11:02:49;;;;;;;0.65;0.55;;;;;;;;;;5093463;28;20035;-81
2021/11/06 11:05:29;;;;;;;0.00;0.00;;;;;;;;;;5073750;28;20029;-82
2021/11/06 11:08:08;;;;;;;0.47;0.47;;;;;;;;;;5093038;28;20069;-81
2021/11/06 11:10:34;;;;;;;1.10;1.08;;;;;;;;;;5093177;28;20086;-82
2021/11/06 11:13:13;;;;;;;0.10;0.10;;;;;;;;;;5092108;28;20016;-81
2021/11/06 11:15:48;;;;;;;0.08;0.08;;;;;;;;;;5092860;28;20036;-82
2021/11/06 11:18:29;;;;;;;0.00;0.00;;;;;;;;;;5092952;28;20150;-81
2021/11/06 11:21:05;;;;;;;0.00;0.00;;;;;;;;;;5091309;28;20059;-81
2021/11/06 11:23:31;;;;;;;1.58;1.48;;;;;;;;;;5072213;28;20057;-81
2021/11/06 11:25:56;;;;;;;0.00;0.00;;;;;;;;;;5072579;28;20044;-81
2021/11/06 11:28:21;;;;;;;0.45;0.45;;;;;;;;;;5073047;28;20158;-81
2021/11/06 11:30:47;;;;;;;0.20;0.20;;;;;;;;;;5073117;28;20385;-81
2021/11/06 11:33:14;;;;;;;0.00;0.00;;;;;;;;;;5083085;28;20103;-81
2021/11/06 11:35:40;;;;;;;0.03;0.03;;;;;;;;;;5091049;28;20414;-81
2021/11/06 11:38:05;;;;;;;0.00;0.00;;;;;;;;;;5084434;28;20051;-81
2021/11/06 11:40:32;;;;;;;0.10;0.10;;;;;;;;;;5092793;28;20423;-81
2021/11/06 11:42:57;;;;;;;0.00;0.00;;;;;;;;;;5080048;28;20020;-81
2021/11/06 11:45:26;;;;;;;0.00;0.00;;;;;;;;;;5090273;28;20024;-81
2021/11/06 11:47:51;;;;;;;0.00;0.00;;;;;;;;;;5087336;28;20040;-81
2021/11/06 11:50:18;;;;;;;0.00;0.00;;;;;;;;;;5077635;28;20028;-81
2021/11/06 11:52:51;;;;;;;0.00;0.00;;;;;;;;;;5089160;28;20065;-81
2021/11/06 11:55:36;;;;;;;0.88;0.63;;;;;;;;;;5078350;28;20024;-81
2021/11/06 11:58:06;;;;;;;0.00;0.00;;;;;;;;;;5080938;28;20477;-81
2021/11/06 12:00:42;;;;;;;0.00;0.00;;;;;;;;;;5089251;28;20488;-81
2021/11/06 12:03:08;;;;;;;0.10;0.10;;;;;;;;;;5077103;28;20008;-81
2021/11/06 12:05:34;;;;;;;0.00;0.00;;;;;;;;;;5093059;28;20032;-81
2021/11/06 12:08:12;;;;;;;5.97;0.68;;;;;;;;;;5082416;28;20021;-81
2021/11/06 12:10:37;;;;;;;0.00;0.00;;;;;;;;;;5092590;28;20024;-81
2021/11/06 12:13:03;;;;;;;0.00;0.00;;;;;;;;;;5092279;28;20086;-81
2021/11/06 12:15:47;;;;;;;0.03;0.03;;;;;;;;;;5091851;28;20019;-82
2021/11/06 12:18:31;;;;;;;0.10;0.10;;;;;;;;;;5092157;28;20035;-81
2021/11/06 12:21:20;;;;;;;0.10;0.10;;;;;;;;;;5089825;28;20047;-81
2021/11/06 12:23:46;;;;;;;3.40;0.47;;;;;;;;;;5087293;28;20067;-82
2021/11/06 12:26:21;;;;;;;0.00;0.00;;;;;;;;;;5092618;28;20425;-81
2021/11/06 12:28:47;;;;;;;0.38;0.30;;;;;;;;;;5078955;28;20016;-81
2021/11/06 12:31:21;;;;;;;0.00;0.00;;;;;;;;;;5091891;28;20064;-81
2021/11/06 12:33:47;;;;;;;0.08;0.08;;;;;;;;;;5092401;28;20036;-81
2021/11/06 12:36:26;;;;;;;1.75;0.70;;;;;;;;;;5091815;28;20083;-81
2021/11/06 12:38:51;;;;;;;0.20;0.20;;;;;;;;;;5092827;28;20024;-81
2021/11/06 12:41:33;;;;;;;0.63;0.63;;;;;;;;;;5092256;28;20030;-81
2021/11/06 12:44:01;;;;;;;0.05;0.05;;;;;;;;;;5092411;28;20032;-81
2021/11/06 12:46:28;;;;;;;0.10;0.10;;;;;;;;;;5091029;28;20037;-82
2021/11/06 12:48:54;;;;;;;0.15;0.15;;;;;;;;;;5092281;28;20437;-81
2021/11/06 12:51:30;;;;;;;0.60;0.60;;;;;;;;;;5092149;28;20027;-81
2021/11/06 12:53:59;;;;;;;0.10;0.10;;;;;;;;;;5092223;28;20396;-82
2021/11/06 12:56:26;;;;;;;0.35;0.35;;;;;;;;;;5094302;28;20039;-81
2021/11/06 12:59:03;;;;;;;1.25;0.45;;;;;;;;;;5095056;28;20148;-81
2021/11/06 13:01:29;;;;;;;0.00;0.00;;;;;;;;;;5095006;28;20035;-81
2021/11/06 13:03:58;;;;;;;5.15;1.05;;;;;;;;;;5084339;28;20064;-81
2021/11/06 13:06:27;;;;;;;0.00;0.00;;;;;;;;;;5094941;28;20095;-80
2021/11/06 13:09:09;;;;;;;2.85;0.85;;;;;;;;;;5094746;28;20085;-81
2021/11/06 13:11:52;;;;;;;0.00;0.00;;;;;;;;;;5093220;28;20040;-82
2021/11/06 13:14:26;;;;;;;0.00;0.00;;;;;;;;;;5095043;28;20115;-81
2021/11/06 13:17:03;;;;;;;0.00;0.00;;;;;;;;;;5094662;28;20039;-82
2021/11/06 13:19:55;;;;;;;0.00;0.00;;;;;;;;;;5094268;28;20456;-82
2021/11/06 13:22:26;;;;;;;0.00;0.00;;;;;;;;;;5078092;28;20048;-82
2021/11/06 13:24:54;;;;;;;0.00;0.00;;;;;;;;;;5094282;28;20073;-82
2021/11/06 13:27:37;;;;;;;0.38;0.38;;;;;;;;;;5094480;28;20031;-82
2021/11/06 13:30:17;;;;;;;0.00;0.00;;;;;;;;;;5094376;28;20060;-82
2021/11/06 13:32:50;;;;;;;0.00;0.00;;;;;;;;;;5093705;28;20440;-81
2021/11/06 13:35:19;;;;;;;0.00;0.00;;;;;;;;;;5093672;28;20050;-82
2021/11/06 13:37:44;;;;;;;0.00;0.00;;;;;;;;;;5094346;28;20038;-82
2021/11/06 13:40:10;;;;;;;0.00;0.00;;;;;;;;;;5093668;28;20368;-82
2021/11/06 13:42:35;;;;;;;0.00;0.00;;;;;;;;;;5093832;28;20051;-82
2021/11/06 13:45:07;;;;;;;0.00;0.00;;;;;;;;;;5093928;28;20044;-82
2021/11/06 13:47:42;;;;;;;6.80;1.70;;;;;;;;;;5093896;28;20181;-82
2021/11/06 13:50:07;;;;;;;0.00;0.00;;;;;;;;;;5094215;28;20499;-82
2021/11/06 13:52:32;;;;;;;0.10;0.10;;;;;;;;;;5094040;28;20110;-81
2021/11/06 13:54:58;;;;;;;0.00;0.00;;;;;;;;;;5094113;28;20102;-82
2021/11/06 13:57:25;;;;;;;0.10;0.10;;;;;;;;;;5093620;28;20483;-82
2021/11/06 14:00:08;;;;;;;0.30;0.30;;;;;;;;;;5093669;28;20494;-81
2021/11/06 14:02:45;;;;;;;0.00;0.00;;;;;;;;;;5094054;28;20036;-82
2021/11/06 14:05:15;;;;;;;0.00;0.00;;;;;;;;;;5093646;28;20047;-82
2021/11/06 14:07:40;;;;;;;0.20;0.20;;;;;;;;;;5093834;28;20032;-82
2021/11/06 14:10:07;;;;;;;0.28;0.28;;;;;;;;;;5093755;28;20036;-82
2021/11/06 14:12:35;;;;;;;0.05;0.05;;;;;;;;;;5093572;28;20452;-82
2021/11/06 14:15:00;;;;;;;0.22;0.22;;;;;;;;;;5093672;28;20027;-81
2021/11/06 14:17:26;;;;;;;0.00;0.00;;;;;;;;;;5093763;28;20157;-82
2021/11/06 14:19:53;;;;;;;0.00;0.00;;;;;;;;;;5093443;28;20024;-81
2021/11/06 14:22:30;;;;;;;0.55;0.25;;;;;;;;;;5093395;28;20542;-81
2021/11/06 14:24:57;;;;;;;0.00;0.00;;;;;;;;;;5093553;28;20042;-82
2021/11/06 14:27:23;;;;;;;3.25;1.90;;;;;;;;;;5093154;28;20050;-82
2021/11/06 14:30:06;;;;;;;0.10;0.10;;;;;;;;;;5093282;28;20491;-81
2021/11/06 14:32:32;;;;;;;0.13;0.13;;;;;;;;;;5093405;28;20092;-81
2021/11/06 14:35:08;;;;;;;0.00;0.00;;;;;;;;;;5092088;28;20470;-82
2021/11/06 14:37:33;;;;;;;0.00;0.00;;;;;;;;;;5093305;28;20059;-81
2021/11/06 14:40:00;;;;;;;0.63;0.63;;;;;;;;;;5093168;28;20404;-81
2021/11/06 14:42:36;;;;;;;1.05;1.02;;;;;;;;;;5092981;28;20439;-81